sensor_id;sensor_type;location;lat;lon;timestamp;pressure;altitude;pressure_sealevel;temperature
27715;BMP280;16051;53.024;8.630;2022-10-13T00:03:41;101934.16;;;8.48
27715;BMP280;16051;53.024;8.630;2022-10-13T00:07:45;101936.91;;;8.48
27715;BMP280;16051;53.024;8.630;2022-10-13T00:11:48;101935.00;;;8.45
27715;BMP280;16051;53.024;8.630;2022-10-13T00:15:52;101939.03;;;8.40
27715;BMP280;16051;53.024;8.630;2022-10-13T00:19:54;101937.84;;;8.42
27715;BMP280;16051;53.024;8.630;2022-10-13T00:23:57;101937.06;;;8.41
27715;BMP280;16051;53.024;8.630;2022-10-13T00:27:59;101935.16;;;8.38
27715;BMP280;16051;53.024;8.630;2022-10-13T00:32:02;101928.88;;;8.37
27715;BMP280;16051;53.024;8.630;2022-10-13T00:36:10;101934.31;;;8.41
27715;BMP280;16051;53.024;8.630;2022-10-13T00:40:12;101938.63;;;8.42
27715;BMP280;16051;53.024;8.630;2022-10-13T00:44:59;101927.94;;;8.44
27715;BMP280;16051;53.024;8.630;2022-10-13T00:49:08;101929.50;;;8.45
27715;BMP280;16051;53.024;8.630;2022-10-13T00:53:13;101925.63;;;8.43
27715;BMP280;16051;53.024;8.630;2022-10-13T00:57:18;101929.59;;;8.42
27715;BMP280;16051;53.024;8.630;2022-10-13T01:01:21;101920.63;;;8.37
27715;BMP280;16051;53.024;8.630;2022-10-13T01:05:25;101923.63;;;8.43
27715;BMP280;16051;53.024;8.630;2022-10-13T01:09:27;101922.03;;;8.46
27715;BMP280;16051;53.024;8.630;2022-10-13T01:13:41;101919.97;;;8.50
27715;BMP280;16051;53.024;8.630;2022-10-13T01:17:59;101917.38;;;8.59
27715;BMP280;16051;53.024;8.630;2022-10-13T01:22:19;101902.75;;;8.62
27715;BMP280;16051;53.024;8.630;2022-10-13T01:26:55;101904.31;;;8.63
27715;BMP280;16051;53.024;8.630;2022-10-13T01:31:08;101893.28;;;8.63
27715;BMP280;16051;53.024;8.630;2022-10-13T01:35:17;101898.81;;;8.63
27715;BMP280;16051;53.024;8.630;2022-10-13T01:39:27;101890.97;;;8.61
27715;BMP280;16051;53.024;8.630;2022-10-13T01:43:35;101883.91;;;8.60
27715;BMP280;16051;53.024;8.630;2022-10-13T01:47:43;101894.50;;;8.62
27715;BMP280;16051;53.024;8.630;2022-10-13T01:51:48;101882.59;;;8.65
27715;BMP280;16051;53.024;8.630;2022-10-13T01:55:54;101872.47;;;8.62
27715;BMP280;16051;53.024;8.630;2022-10-13T01:59:57;101874.00;;;8.63
27715;BMP280;16051;53.024;8.630;2022-10-13T02:04:18;101863.41;;;8.61
27715;BMP280;16051;53.024;8.630;2022-10-13T02:08:30;101863.16;;;8.56
27715;BMP280;16051;53.024;8.630;2022-10-13T02:12:39;101856.19;;;8.51
27715;BMP280;16051;53.024;8.630;2022-10-13T02:16:48;101851.53;;;8.48
27715;BMP280;16051;53.024;8.630;2022-10-13T02:20:54;101848.00;;;8.48
27715;BMP280;16051;53.024;8.630;2022-10-13T02:24:56;101850.34;;;8.49
27715;BMP280;16051;53.024;8.630;2022-10-13T02:28:58;101847.59;;;8.49
27715;BMP280;16051;53.024;8.630;2022-10-13T02:33:02;101839.34;;;8.49
27715;BMP280;16051;53.024;8.630;2022-10-13T02:37:05;101838.97;;;8.47
27715;BMP280;16051;53.024;8.630;2022-10-13T02:41:11;101836.66;;;8.46
27715;BMP280;16051;53.024;8.630;2022-10-13T02:45:13;101832.78;;;8.43
27715;BMP280;16051;53.024;8.630;2022-10-13T02:49:15;101826.94;;;8.41
27715;BMP280;16051;53.024;8.630;2022-10-13T02:53:19;101832.44;;;8.41
27715;BMP280;16051;53.024;8.630;2022-10-13T02:57:21;101838.19;;;8.47
27715;BMP280;16051;53.024;8.630;2022-10-13T03:01:24;101831.00;;;8.53
27715;BMP280;16051;53.024;8.630;2022-10-13T03:05:47;101838.72;;;8.58
27715;BMP280;16051;53.024;8.630;2022-10-13T03:09:51;101835.44;;;8.63
27715;BMP280;16051;53.024;8.630;2022-10-13T03:13:53;101839.69;;;8.67
27715;BMP280;16051;53.024;8.630;2022-10-13T03:17:55;101837.69;;;8.68
27715;BMP280;16051;53.024;8.630;2022-10-13T03:21:57;101836.06;;;8.70
27715;BMP280;16051;53.024;8.630;2022-10-13T03:26:01;101832.94;;;8.68
27715;BMP280;16051;53.024;8.630;2022-10-13T03:30:05;101826.25;;;8.69
27715;BMP280;16051;53.024;8.630;2022-10-13T03:34:31;101822.63;;;8.72
27715;BMP280;16051;53.024;8.630;2022-10-13T03:38:34;101821.00;;;8.75
27715;BMP280;16051;53.024;8.630;2022-10-13T03:42:39;101826.41;;;8.78
27715;BMP280;16051;53.024;8.630;2022-10-13T03:46:44;101821.69;;;8.79
27715;BMP280;16051;53.024;8.630;2022-10-13T03:50:46;101821.69;;;8.79
27715;BMP280;16051;53.024;8.630;2022-10-13T03:54:48;101828.38;;;8.78
27715;BMP280;16051;53.024;8.630;2022-10-13T03:58:54;101813.41;;;8.79
27715;BMP280;16051;53.024;8.630;2022-10-13T04:02:57;101808.25;;;8.81
27715;BMP280;16051;53.024;8.630;2022-10-13T04:07:00;101807.47;;;8.80
27715;BMP280;16051;53.024;8.630;2022-10-13T04:11:05;101799.66;;;8.79
27715;BMP280;16051;53.024;8.630;2022-10-13T04:15:10;101790.59;;;8.78
27715;BMP280;16051;53.024;8.630;2022-10-13T04:19:14;101785.94;;;8.75
27715;BMP280;16051;53.024;8.630;2022-10-13T04:23:16;101766.66;;;8.75
27715;BMP280;16051;53.024;8.630;2022-10-13T04:27:18;101751.78;;;8.73
27715;BMP280;16051;53.024;8.630;2022-10-13T04:31:27;101761.91;;;8.76
27715;BMP280;16051;53.024;8.630;2022-10-13T04:35:30;101768.56;;;8.78
27715;BMP280;16051;53.024;8.630;2022-10-13T04:39:32;101769.56;;;8.84
27715;BMP280;16051;53.024;8.630;2022-10-13T04:43:34;101771.91;;;8.86
27715;BMP280;16051;53.024;8.630;2022-10-13T04:48:00;101770.38;;;8.98
27715;BMP280;16051;53.024;8.630;2022-10-13T04:52:02;101768.66;;;9.04
27715;BMP280;16051;53.024;8.630;2022-10-13T04:56:08;101753.22;;;9.06
27715;BMP280;16051;53.024;8.630;2022-10-13T05:00:12;101752.38;;;9.09
27715;BMP280;16051;53.024;8.630;2022-10-13T05:04:16;101751.16;;;9.10
27715;BMP280;16051;53.024;8.630;2022-10-13T05:08:18;101737.81;;;9.09
27715;BMP280;16051;53.024;8.630;2022-10-13T05:12:20;101743.22;;;9.12
27715;BMP280;16051;53.024;8.630;2022-10-13T05:16:24;101732.53;;;9.14
27715;BMP280;16051;53.024;8.630;2022-10-13T05:20:27;101734.06;;;9.15
27715;BMP280;16051;53.024;8.630;2022-10-13T05:24:34;101726.94;;;9.18
27715;BMP280;16051;53.024;8.630;2022-10-13T05:28:37;101732.75;;;9.20
27715;BMP280;16051;53.024;8.630;2022-10-13T05:32:39;101736.28;;;9.20
27715;BMP280;16051;53.024;8.630;2022-10-13T05:36:43;101732.34;;;9.21
27715;BMP280;16051;53.024;8.630;2022-10-13T05:40:45;101740.16;;;9.23
27715;BMP280;16051;53.024;8.630;2022-10-13T05:44:47;101727.16;;;9.23
27715;BMP280;16051;53.024;8.630;2022-10-13T05:48:50;101731.47;;;9.24
27715;BMP280;16051;53.024;8.630;2022-10-13T05:52:53;101733.00;;;9.25
27715;BMP280;16051;53.024;8.630;2022-10-13T05:57:18;101741.97;;;9.29
27715;BMP280;16051;53.024;8.630;2022-10-13T06:01:25;101734.00;;;9.31
27715;BMP280;16051;53.024;8.630;2022-10-13T06:05:30;101726.06;;;9.33
27715;BMP280;16051;53.024;8.630;2022-10-13T06:09:36;101717.69;;;9.37
27715;BMP280;16051;53.024;8.630;2022-10-13T06:13:38;101723.19;;;9.37
27715;BMP280;16051;53.024;8.630;2022-10-13T06:17:40;101713.72;;;9.38
27715;BMP280;16051;53.024;8.630;2022-10-13T06:21:43;101715.59;;;9.41
27715;BMP280;16051;53.024;8.630;2022-10-13T06:25:51;101711.97;;;9.44
27715;BMP280;16051;53.024;8.630;2022-10-13T06:29:53;101711.53;;;9.46
27715;BMP280;16051;53.024;8.630;2022-10-13T06:33:56;101715.38;;;9.48
27715;BMP280;16051;53.024;8.630;2022-10-13T06:38:06;101722.69;;;9.55
27715;BMP280;16051;53.024;8.630;2022-10-13T06:42:10;101725.78;;;9.57
27715;BMP280;16051;53.024;8.630;2022-10-13T06:46:12;101718.50;;;9.63
27715;BMP280;16051;53.024;8.630;2022-10-13T06:50:15;101708.47;;;9.69
27715;BMP280;16051;53.024;8.630;2022-10-13T06:54:17;101705.25;;;9.70
27715;BMP280;16051;53.024;8.630;2022-10-13T06:58:20;101708.00;;;9.70
27715;BMP280;16051;53.024;8.630;2022-10-13T07:02:38;101706.25;;;9.76
27715;BMP280;16051;53.024;8.630;2022-10-13T07:06:48;101716.63;;;9.85
27715;BMP280;16051;53.024;8.630;2022-10-13T07:10:50;101712.41;;;9.93
27715;BMP280;16051;53.024;8.630;2022-10-13T07:14:54;101722.81;;;10.02
27715;BMP280;16051;53.024;8.630;2022-10-13T07:19:26;101721.22;;;10.13
27715;BMP280;16051;53.024;8.630;2022-10-13T07:23:29;101714.75;;;10.20
27715;BMP280;16051;53.024;8.630;2022-10-13T07:27:31;101707.75;;;10.28
27715;BMP280;16051;53.024;8.630;2022-10-13T07:31:35;101715.38;;;10.36
27715;BMP280;16051;53.024;8.630;2022-10-13T07:35:37;101698.13;;;10.45
27715;BMP280;16051;53.024;8.630;2022-10-13T07:39:39;101711.44;;;10.59
27715;BMP280;16051;53.024;8.630;2022-10-13T07:43:42;101715.28;;;10.62
27715;BMP280;16051;53.024;8.630;2022-10-13T07:48:00;101720.53;;;10.81
27715;BMP280;16051;53.024;8.630;2022-10-13T07:52:03;101714.41;;;10.86
27715;BMP280;16051;53.024;8.630;2022-10-13T07:56:09;101709.00;;;11.05
27715;BMP280;16051;53.024;8.630;2022-10-13T08:00:13;101692.03;;;11.15
27715;BMP280;16051;53.024;8.630;2022-10-13T08:04:16;101702.38;;;11.24
27715;BMP280;16051;53.024;8.630;2022-10-13T08:08:19;101705.25;;;11.42
27715;BMP280;16051;53.024;8.630;2022-10-13T08:12:21;101712.66;;;11.54
27715;BMP280;16051;53.024;8.630;2022-10-13T08:16:23;101716.16;;;11.76
27715;BMP280;16051;53.024;8.630;2022-10-13T08:20:29;101707.34;;;12.00
27715;BMP280;16051;53.024;8.630;2022-10-13T08:24:31;101692.88;;;12.05
27715;BMP280;16051;53.024;8.630;2022-10-13T08:28:33;101698.94;;;12.21
27715;BMP280;16051;53.024;8.630;2022-10-13T08:32:35;101674.47;;;12.38
27715;BMP280;16051;53.024;8.630;2022-10-13T08:36:39;101683.41;;;12.51
27715;BMP280;16051;53.024;8.630;2022-10-13T08:40:47;101696.66;;;12.65
27715;BMP280;16051;53.024;8.630;2022-10-13T08:44:52;101694.16;;;12.86
27715;BMP280;16051;53.024;8.630;2022-10-13T08:48:59;101685.84;;;12.95
27715;BMP280;16051;53.024;8.630;2022-10-13T08:53:10;101667.03;;;13.08
27715;BMP280;16051;53.024;8.630;2022-10-13T08:57:13;101662.06;;;13.21
27715;BMP280;16051;53.024;8.630;2022-10-13T09:01:20;101658.06;;;13.31
27715;BMP280;16051;53.024;8.630;2022-10-13T09:05:36;101665.88;;;13.42
27715;BMP280;16051;53.024;8.630;2022-10-13T09:09:40;101656.31;;;13.43
27715;BMP280;16051;53.024;8.630;2022-10-13T09:13:42;101654.44;;;13.49
27715;BMP280;16051;53.024;8.630;2022-10-13T09:18:07;101659.66;;;13.56
27715;BMP280;16051;53.024;8.630;2022-10-13T09:22:20;101663.59;;;13.64
27715;BMP280;16051;53.024;8.630;2022-10-13T09:26:43;101665.84;;;13.84
27715;BMP280;16051;53.024;8.630;2022-10-13T09:30:46;101659.91;;;14.14
27715;BMP280;16051;53.024;8.630;2022-10-13T09:34:49;101656.41;;;14.38
27715;BMP280;16051;53.024;8.630;2022-10-13T09:39:09;101664.22;;;14.63
27715;BMP280;16051;53.024;8.630;2022-10-13T09:43:29;101655.81;;;14.72
27715;BMP280;16051;53.024;8.630;2022-10-13T09:47:31;101655.31;;;14.88
27715;BMP280;16051;53.024;8.630;2022-10-13T09:51:38;101647.56;;;15.07
27715;BMP280;16051;53.024;8.630;2022-10-13T09:55:40;101650.16;;;15.10
27715;BMP280;16051;53.024;8.630;2022-10-13T10:00:13;101642.66;;;15.16
27715;BMP280;16051;53.024;8.630;2022-10-13T10:04:24;101637.75;;;15.41
27715;BMP280;16051;53.024;8.630;2022-10-13T10:08:45;101631.16;;;15.93
27715;BMP280;16051;53.024;8.630;2022-10-13T10:12:51;101637.06;;;16.41
27715;BMP280;16051;53.024;8.630;2022-10-13T10:17:05;101636.63;;;16.68
27715;BMP280;16051;53.024;8.630;2022-10-13T10:21:14;101631.28;;;16.45
27715;BMP280;16051;53.024;8.630;2022-10-13T10:25:30;101629.91;;;16.35
27715;BMP280;16051;53.024;8.630;2022-10-13T10:29:46;101627.34;;;16.77
27715;BMP280;16051;53.024;8.630;2022-10-13T10:34:04;101623.56;;;16.80
27715;BMP280;16051;53.024;8.630;2022-10-13T10:38:25;101622.75;;;16.74
27715;BMP280;16051;53.024;8.630;2022-10-13T10:42:56;101618.88;;;16.66
27715;BMP280;16051;53.024;8.630;2022-10-13T10:47:06;101620.63;;;16.63
27715;BMP280;16051;53.024;8.630;2022-10-13T10:51:37;101608.56;;;16.52
27715;BMP280;16051;53.024;8.630;2022-10-13T10:55:46;101598.66;;;16.51
27715;BMP280;16051;53.024;8.630;2022-10-13T11:00:04;101600.44;;;16.74
27715;BMP280;16051;53.024;8.630;2022-10-13T11:04:47;101600.25;;;16.83
27715;BMP280;16051;53.024;8.630;2022-10-13T11:08:51;101587.88;;;16.90
27715;BMP280;16051;53.024;8.630;2022-10-13T11:13:18;101581.56;;;16.89
27715;BMP280;16051;53.024;8.630;2022-10-13T11:17:28;101581.72;;;16.80
27715;BMP280;16051;53.024;8.630;2022-10-13T11:22:20;101577.59;;;16.76
27715;BMP280;16051;53.024;8.630;2022-10-13T11:26:41;101568.69;;;16.71
27715;BMP280;16051;53.024;8.630;2022-10-13T11:30:46;101560.28;;;16.66
27715;BMP280;16051;53.024;8.630;2022-10-13T11:34:57;101560.06;;;16.69
27715;BMP280;16051;53.024;8.630;2022-10-13T11:44:00;101565.41;;;16.47
27715;BMP280;16051;53.024;8.630;2022-10-13T11:48:51;101558.63;;;16.54
27715;BMP280;16051;53.024;8.630;2022-10-13T11:53:14;101551.13;;;16.60
27715;BMP280;16051;53.024;8.630;2022-10-13T11:57:21;101552.03;;;16.77
27715;BMP280;16051;53.024;8.630;2022-10-13T12:01:25;101544.47;;;17.20
27715;BMP280;16051;53.024;8.630;2022-10-13T12:05:28;101548.72;;;17.47
27715;BMP280;16051;53.024;8.630;2022-10-13T12:09:35;101543.56;;;17.34
27715;BMP280;16051;53.024;8.630;2022-10-13T12:13:45;101552.13;;;17.25
27715;BMP280;16051;53.024;8.630;2022-10-13T12:17:49;101545.19;;;17.15
27715;BMP280;16051;53.024;8.630;2022-10-13T12:21:54;101552.22;;;17.05
27715;BMP280;16051;53.024;8.630;2022-10-13T12:26:14;101546.84;;;16.96
27715;BMP280;16051;53.024;8.630;2022-10-13T12:30:22;101555.38;;;16.81
27715;BMP280;16051;53.024;8.630;2022-10-13T12:34:29;101551.00;;;16.49
27715;BMP280;16051;53.024;8.630;2022-10-13T12:38:33;101543.06;;;16.42
27715;BMP280;16051;53.024;8.630;2022-10-13T12:42:37;101541.88;;;16.28
27715;BMP280;16051;53.024;8.630;2022-10-13T12:46:42;101537.31;;;16.25
27715;BMP280;16051;53.024;8.630;2022-10-13T12:50:54;101536.44;;;16.39
27715;BMP280;16051;53.024;8.630;2022-10-13T12:55:16;101525.47;;;16.30
27715;BMP280;16051;53.024;8.630;2022-10-13T12:59:20;101514.25;;;16.24
27715;BMP280;16051;53.024;8.630;2022-10-13T13:03:26;101513.53;;;16.30
27715;BMP280;16051;53.024;8.630;2022-10-13T13:07:34;101515.44;;;16.44
27715;BMP280;16051;53.024;8.630;2022-10-13T13:11:38;101524.84;;;16.46
27715;BMP280;16051;53.024;8.630;2022-10-13T13:15:40;101532.56;;;16.57
27715;BMP280;16051;53.024;8.630;2022-10-13T13:19:45;101532.13;;;16.64
27715;BMP280;16051;53.024;8.630;2022-10-13T13:23:48;101520.59;;;16.82
27715;BMP280;16051;53.024;8.630;2022-10-13T13:27:51;101518.09;;;16.84
27715;BMP280;16051;53.024;8.630;2022-10-13T13:31:53;101511.72;;;17.63
27715;BMP280;16051;53.024;8.630;2022-10-13T13:35:58;101517.00;;;18.26
27715;BMP280;16051;53.024;8.630;2022-10-13T13:40:02;101524.66;;;18.42
27715;BMP280;16051;53.024;8.630;2022-10-13T13:44:04;101507.59;;;18.12
27715;BMP280;16051;53.024;8.630;2022-10-13T13:48:07;101508.22;;;17.74
27715;BMP280;16051;53.024;8.630;2022-10-13T13:52:10;101509.56;;;17.41
27715;BMP280;16051;53.024;8.630;2022-10-13T13:56:16;101506.66;;;17.19
27715;BMP280;16051;53.024;8.630;2022-10-13T14:00:19;101498.97;;;17.08
27715;BMP280;16051;53.024;8.630;2022-10-13T14:04:21;101496.56;;;16.90
27715;BMP280;16051;53.024;8.630;2022-10-13T14:08:28;101499.13;;;16.88
27715;BMP280;16051;53.024;8.630;2022-10-13T14:12:32;101493.22;;;16.81
27715;BMP280;16051;53.024;8.630;2022-10-13T14:16:34;101493.34;;;16.66
27715;BMP280;16051;53.024;8.630;2022-10-13T14:20:40;101492.28;;;16.58
27715;BMP280;16051;53.024;8.630;2022-10-13T14:24:43;101496.59;;;16.59
27715;BMP280;16051;53.024;8.630;2022-10-13T14:29:06;101503.16;;;16.56
27715;BMP280;16051;53.024;8.630;2022-10-13T14:33:08;101501.56;;;16.49
27715;BMP280;16051;53.024;8.630;2022-10-13T14:37:10;101492.44;;;16.49
27715;BMP280;16051;53.024;8.630;2022-10-13T14:41:12;101495.13;;;16.38
27715;BMP280;16051;53.024;8.630;2022-10-13T14:45:18;101496.47;;;16.48
27715;BMP280;16051;53.024;8.630;2022-10-13T14:49:20;101497.69;;;16.41
27715;BMP280;16051;53.024;8.630;2022-10-13T14:53:33;101494.72;;;16.24
27715;BMP280;16051;53.024;8.630;2022-10-13T14:57:35;101486.31;;;16.19
27715;BMP280;16051;53.024;8.630;2022-10-13T15:01:39;101479.72;;;16.16
27715;BMP280;16051;53.024;8.630;2022-10-13T15:05:42;101488.53;;;16.09
27715;BMP280;16051;53.024;8.630;2022-10-13T15:09:44;101477.41;;;16.15
27715;BMP280;16051;53.024;8.630;2022-10-13T15:13:48;101475.31;;;16.10
27715;BMP280;16051;53.024;8.630;2022-10-13T15:17:51;101481.63;;;16.05
27715;BMP280;16051;53.024;8.630;2022-10-13T15:21:53;101485.94;;;16.06
27715;BMP280;16051;53.024;8.630;2022-10-13T15:25:58;101480.09;;;16.04
27715;BMP280;16051;53.024;8.630;2022-10-13T15:30:00;101481.28;;;15.97
27715;BMP280;16051;53.024;8.630;2022-10-13T15:34:04;101488.94;;;16.02
27715;BMP280;16051;53.024;8.630;2022-10-13T15:38:06;101481.00;;;15.95
27715;BMP280;16051;53.024;8.630;2022-10-13T15:42:10;101486.78;;;15.92
27715;BMP280;16051;53.024;8.630;2022-10-13T15:46:15;101476.03;;;15.79
27715;BMP280;16051;53.024;8.630;2022-10-13T15:50:24;101482.78;;;15.72
27715;BMP280;16051;53.024;8.630;2022-10-13T15:54:27;101488.28;;;15.67
27715;BMP280;16051;53.024;8.630;2022-10-13T15:58:33;101483.00;;;15.69
27715;BMP280;16051;53.024;8.630;2022-10-13T16:02:35;101490.72;;;15.59
27715;BMP280;16051;53.024;8.630;2022-10-13T16:06:39;101481.88;;;15.61
27715;BMP280;16051;53.024;8.630;2022-10-13T16:10:45;101477.66;;;15.65
27715;BMP280;16051;53.024;8.630;2022-10-13T16:14:48;101483.84;;;15.55
27715;BMP280;16051;53.024;8.630;2022-10-13T16:18:50;101483.84;;;15.55
27715;BMP280;16051;53.024;8.630;2022-10-13T16:23:11;101478.53;;;15.37
27715;BMP280;16051;53.024;8.630;2022-10-13T16:27:26;101485.59;;;15.38
27715;BMP280;16051;53.024;8.630;2022-10-13T16:31:28;101479.63;;;15.24
27715;BMP280;16051;53.024;8.630;2022-10-13T16:35:31;101476.47;;;15.17
27715;BMP280;16051;53.024;8.630;2022-10-13T16:39:35;101486.78;;;15.11
27715;BMP280;16051;53.024;8.630;2022-10-13T16:43:37;101486.69;;;15.05
27715;BMP280;16051;53.024;8.630;2022-10-13T16:47:49;101490.38;;;14.97
27715;BMP280;16051;53.024;8.630;2022-10-13T16:51:52;101486.13;;;15.01
27715;BMP280;16051;53.024;8.630;2022-10-13T16:55:55;101487.09;;;14.98
27715;BMP280;16051;53.024;8.630;2022-10-13T16:59:57;101484.81;;;14.97
27715;BMP280;16051;53.024;8.630;2022-10-13T17:04:25;101483.09;;;14.85
27715;BMP280;16051;53.024;8.630;2022-10-13T17:08:29;101488.38;;;14.83
27715;BMP280;16051;53.024;8.630;2022-10-13T17:12:33;101486.06;;;14.81
27715;BMP280;16051;53.024;8.630;2022-10-13T17:16:35;101492.41;;;14.82
27715;BMP280;16051;53.024;8.630;2022-10-13T17:21:04;101488.09;;;14.66
27715;BMP280;16051;53.024;8.630;2022-10-13T17:25:08;101490.59;;;14.64
27715;BMP280;16051;53.024;8.630;2022-10-13T17:29:12;101488.09;;;14.66
27715;BMP280;16051;53.024;8.630;2022-10-13T17:33:14;101488.09;;;14.66
27715;BMP280;16051;53.024;8.630;2022-10-13T17:37:32;101493.00;;;14.71
27715;BMP280;16051;53.024;8.630;2022-10-13T17:41:46;101500.78;;;14.52
27715;BMP280;16051;53.024;8.630;2022-10-13T17:45:49;101496.44;;;14.51
27715;BMP280;16051;53.024;8.630;2022-10-13T17:49:51;101498.75;;;14.53
27715;BMP280;16051;53.024;8.630;2022-10-13T17:53:58;101496.38;;;14.46
27715;BMP280;16051;53.024;8.630;2022-10-13T17:58:01;101494.25;;;14.41
27715;BMP280;16051;53.024;8.630;2022-10-13T18:02:05;101491.66;;;14.37
27715;BMP280;16051;53.024;8.630;2022-10-13T18:06:10;101490.13;;;14.36
27715;BMP280;16051;53.024;8.630;2022-10-13T18:10:12;101498.47;;;14.36
27715;BMP280;16051;53.024;8.630;2022-10-13T18:14:15;101487.91;;;14.40
27715;BMP280;16051;53.024;8.630;2022-10-13T18:18:19;101499.72;;;14.35
27715;BMP280;16051;53.024;8.630;2022-10-13T18:22:21;101495.97;;;14.38
27715;BMP280;16051;53.024;8.630;2022-10-13T18:26:25;101501.53;;;14.38
27715;BMP280;16051;53.024;8.630;2022-10-13T18:30:27;101502.94;;;14.34
27715;BMP280;16051;53.024;8.630;2022-10-13T18:34:31;101505.53;;;14.22
27715;BMP280;16051;53.024;8.630;2022-10-13T18:38:33;101506.59;;;14.25
27715;BMP280;16051;53.024;8.630;2022-10-13T18:42:35;101503.31;;;14.26
27715;BMP280;16051;53.024;8.630;2022-10-13T18:51:58;101502.75;;;14.22
27715;BMP280;16051;53.024;8.630;2022-10-13T18:56:02;101509.91;;;14.14
27715;BMP280;16051;53.024;8.630;2022-10-13T19:00:06;101494.91;;;14.21
27715;BMP280;16051;53.024;8.630;2022-10-13T19:04:10;101499.00;;;14.25
27715;BMP280;16051;53.024;8.630;2022-10-13T19:08:15;101489.72;;;14.14
27715;BMP280;16051;53.024;8.630;2022-10-13T19:12:17;101497.88;;;14.17
27715;BMP280;16051;53.024;8.630;2022-10-13T19:16:22;101503.50;;;14.08
27715;BMP280;16051;53.024;8.630;2022-10-13T19:20:31;101496.69;;;14.09
27715;BMP280;16051;53.024;8.630;2022-10-13T19:24:35;101503.81;;;14.10
27715;BMP280;16051;53.024;8.630;2022-10-13T19:28:54;101499.34;;;14.04
27715;BMP280;16051;53.024;8.630;2022-10-13T19:33:11;101495.34;;;14.05
27715;BMP280;16051;53.024;8.630;2022-10-13T19:37:13;101508.78;;;14.06
27715;BMP280;16051;53.024;8.630;2022-10-13T19:41:23;101495.47;;;14.10
27715;BMP280;16051;53.024;8.630;2022-10-13T19:45:26;101491.81;;;14.04
27715;BMP280;16051;53.024;8.630;2022-10-13T19:49:28;101505.41;;;14.02
27715;BMP280;16051;53.024;8.630;2022-10-13T19:53:30;101499.34;;;14.04
27715;BMP280;16051;53.024;8.630;2022-10-13T19:57:58;101501.13;;;14.16
27715;BMP280;16051;53.024;8.630;2022-10-13T20:02:00;101507.13;;;14.14
27715;BMP280;16051;53.024;8.630;2022-10-13T20:06:04;101509.25;;;14.19
27715;BMP280;16051;53.024;8.630;2022-10-13T20:10:07;101507.31;;;14.11
27715;BMP280;16051;53.024;8.630;2022-10-13T20:19:33;101513.06;;;14.07
27715;BMP280;16051;53.024;8.630;2022-10-13T20:23:35;101520.66;;;14.07
27715;BMP280;16051;53.024;8.630;2022-10-13T20:27:38;101507.69;;;14.04
27715;BMP280;16051;53.024;8.630;2022-10-13T20:31:40;101512.00;;;14.05
27715;BMP280;16051;53.024;8.630;2022-10-13T20:36:00;101524.25;;;13.98
27715;BMP280;16051;53.024;8.630;2022-10-13T20:40:04;101523.31;;;14.01
27715;BMP280;16051;53.024;8.630;2022-10-13T20:44:08;101515.75;;;14.02
27715;BMP280;16051;53.024;8.630;2022-10-13T20:48:10;101514.28;;;13.92
27715;BMP280;16051;53.024;8.630;2022-10-13T20:52:14;101520.31;;;13.90
27715;BMP280;16051;53.024;8.630;2022-10-13T20:56:19;101518.78;;;13.89
27715;BMP280;16051;53.024;8.630;2022-10-13T21:00:21;101516.00;;;13.89
27715;BMP280;16051;53.024;8.630;2022-10-13T21:04:23;101517.91;;;13.83
27715;BMP280;16051;53.024;8.630;2022-10-13T21:08:27;101522.41;;;13.80
27715;BMP280;16051;53.024;8.630;2022-10-13T21:12:29;101515.31;;;13.79
27715;BMP280;16051;53.024;8.630;2022-10-13T21:16:35;101516.84;;;13.80
27715;BMP280;16051;53.024;8.630;2022-10-13T21:20:39;101505.63;;;13.75
27715;BMP280;16051;53.024;8.630;2022-10-13T21:24:43;101507.28;;;13.82
27715;BMP280;16051;53.024;8.630;2022-10-13T21:28:45;101513.47;;;13.76
27715;BMP280;16051;53.024;8.630;2022-10-13T21:32:47;101507.16;;;13.76
27715;BMP280;16051;53.024;8.630;2022-10-13T21:36:49;101505.03;;;13.71
27715;BMP280;16051;53.024;8.630;2022-10-13T21:40:56;101499.00;;;13.72
27715;BMP280;16051;53.024;8.630;2022-10-13T21:44:58;101499.78;;;13.73
27715;BMP280;16051;53.024;8.630;2022-10-13T21:49:03;101499.47;;;13.71
27715;BMP280;16051;53.024;8.630;2022-10-13T21:53:06;101501.50;;;13.70
27715;BMP280;16051;53.024;8.630;2022-10-13T21:57:47;101497.66;;;13.68
27715;BMP280;16051;53.024;8.630;2022-10-13T22:01:49;101492.59;;;13.66
27715;BMP280;16051;53.024;8.630;2022-10-13T22:05:51;101496.13;;;13.67
27715;BMP280;16051;53.024;8.630;2022-10-13T22:09:53;101499.38;;;13.65
27715;BMP280;16051;53.024;8.630;2022-10-13T22:13:58;101491.81;;;13.66
27715;BMP280;16051;53.024;8.630;2022-10-13T22:18:01;101493.19;;;13.70
27715;BMP280;16051;53.024;8.630;2022-10-13T22:22:03;101493.34;;;13.67
27715;BMP280;16051;53.024;8.630;2022-10-13T22:26:07;101492.59;;;13.66
27715;BMP280;16051;53.024;8.630;2022-10-13T22:30:11;101494.09;;;13.67
27715;BMP280;16051;53.024;8.630;2022-10-13T22:34:15;101491.81;;;13.66
27715;BMP280;16051;53.024;8.630;2022-10-13T22:38:33;101486.53;;;13.68
27715;BMP280;16051;53.024;8.630;2022-10-13T22:42:35;101492.09;;;13.68
27715;BMP280;16051;53.024;8.630;2022-10-13T22:46:39;101481.00;;;13.68
27715;BMP280;16051;53.024;8.630;2022-10-13T22:50:41;101481.19;;;13.64
27715;BMP280;16051;53.024;8.630;2022-10-13T22:54:44;101468.84;;;13.65
27715;BMP280;16051;53.024;8.630;2022-10-13T22:59:07;101473.03;;;13.61
27715;BMP280;16051;53.024;8.630;2022-10-13T23:03:13;101474.28;;;13.60
27715;BMP280;16051;53.024;8.630;2022-10-13T23:07:15;101480.31;;;13.58
27715;BMP280;16051;53.024;8.630;2022-10-13T23:11:18;101474.75;;;13.58
27715;BMP280;16051;53.024;8.630;2022-10-13T23:20:22;101469.97;;;13.59
27715;BMP280;16051;53.024;8.630;2022-10-13T23:24:24;101467.19;;;13.59
27715;BMP280;16051;53.024;8.630;2022-10-13T23:28:26;101464.88;;;13.57
27715;BMP280;16051;53.024;8.630;2022-10-13T23:32:28;101458.56;;;13.57
27715;BMP280;16051;53.024;8.630;2022-10-13T23:36:32;101457.06;;;13.56
27715;BMP280;16051;53.024;8.630;2022-10-13T23:40:34;101459.81;;;13.56
27715;BMP280;16051;53.024;8.630;2022-10-13T23:44:36;101448.41;;;13.54
27715;BMP280;16051;53.024;8.630;2022-10-13T23:48:39;101453.69;;;13.52